createdAt,value
2022-09-20T00:01:56.712Z,18.77
2022-09-20T00:04:26.850Z,18.33
2022-09-20T00:06:56.891Z,18.31
2022-09-20T00:09:27.292Z,18.37
2022-09-20T00:11:57.248Z,18.27
2022-09-20T00:14:27.249Z,18.56
2022-09-20T00:16:57.460Z,19.06
2022-09-20T00:19:27.858Z,18.88
2022-09-20T00:21:57.817Z,19.13
2022-09-20T00:24:27.988Z,19.83
2022-09-20T00:26:58.158Z,19.39
2022-09-20T00:29:28.184Z,19.95
2022-09-20T00:31:58.375Z,20.79
2022-09-20T00:34:45.906Z,20.50
2022-09-20T00:37:15.936Z,21.31
2022-09-20T00:39:45.903Z,20.68
2022-09-20T00:42:16.671Z,21.13
2022-09-20T00:44:56.840Z,21.49
2022-09-20T00:47:43.260Z,20.86
2022-09-20T00:50:24.459Z,20.72
2022-09-20T00:52:58.174Z,20.43
2022-09-20T00:55:30.153Z,20.37
2022-09-20T00:58:01.281Z,20.18
2022-09-20T01:00:32.285Z,20.65
2022-09-20T01:03:06.334Z,19.89
2022-09-20T01:05:38.159Z,20.37
2022-09-20T01:08:09.881Z,19.92
2022-09-20T01:10:40.352Z,19.82
2022-09-20T01:13:10.382Z,19.67
2022-09-20T01:15:40.172Z,19.58
2022-09-20T01:18:10.839Z,18.47
2022-09-20T01:20:43.829Z,19.25
2022-09-20T01:23:19.176Z,18.02
2022-09-20T01:26:11.515Z,19.22
2022-09-20T01:28:46.632Z,18.64
2022-09-20T01:31:21.871Z,18.59
2022-09-20T01:33:55.525Z,18.45
2022-09-20T01:36:27.695Z,18.70
2022-09-20T01:39:07.660Z,18.76
2022-09-20T01:41:43.297Z,18.48
2022-09-20T01:44:20.269Z,19.18
2022-09-20T01:46:54.285Z,18.79
2022-09-20T01:49:30.626Z,19.15
2022-09-20T01:52:29.561Z,18.92
2022-09-20T01:55:11.972Z,19.18
2022-09-20T01:58:11.144Z,19.26
2022-09-20T02:00:51.642Z,19.12
2022-09-20T02:03:35.139Z,19.51
2022-09-20T02:06:23.333Z,19.36
2022-09-20T02:09:13.785Z,19.18
2022-09-20T02:11:54.447Z,19.74
2022-09-20T02:14:35.286Z,19.44
2022-09-20T02:17:13.927Z,18.99
2022-09-20T02:19:52.867Z,19.38
2022-09-20T02:22:31.352Z,19.53
2022-09-20T02:25:10.830Z,20.19
2022-09-20T02:27:48.376Z,18.38
2022-09-20T02:30:31.515Z,19.19
2022-09-20T02:33:14.015Z,19.62
2022-09-20T02:35:53.202Z,19.45
2022-09-20T02:38:36.115Z,19.25
2022-09-20T02:41:16.975Z,19.60
2022-09-20T02:43:54.026Z,18.87
2022-09-20T02:46:29.749Z,18.15
2022-09-20T02:49:07.442Z,19.66
2022-09-20T02:51:41.826Z,19.07
2022-09-20T02:54:25.272Z,19.18
2022-09-20T02:57:01.698Z,18.86
2022-09-20T02:59:37.653Z,18.44
2022-09-20T03:02:17.533Z,18.56
2022-09-20T03:04:57.565Z,19.45
2022-09-20T03:07:35.140Z,18.02
2022-09-20T03:10:17.546Z,18.01
2022-09-20T03:12:57.816Z,17.25
2022-09-20T03:15:36.532Z,18.09
2022-09-20T03:18:12.994Z,17.26
2022-09-20T03:20:50.884Z,17.67
2022-09-20T03:23:39.043Z,17.44
2022-09-20T03:26:18.870Z,16.92
2022-09-20T03:29:04.444Z,17.11
2022-09-20T03:31:49.832Z,17.17
2022-09-20T03:34:32.735Z,17.43
2022-09-20T03:37:13.574Z,16.72
2022-09-20T03:39:57.080Z,17.01
2022-09-20T03:42:30.218Z,16.41
2022-09-20T03:45:22.513Z,17.00
2022-09-20T03:48:08.745Z,16.22
2022-09-20T03:50:52.249Z,15.17
2022-09-20T03:53:35.343Z,15.89
2022-09-20T03:56:18.819Z,16.81
2022-09-20T03:58:58.531Z,15.65
2022-09-20T04:01:39.012Z,15.74
2022-09-20T04:04:15.774Z,15.24
2022-09-20T04:07:05.376Z,15.06
2022-09-20T04:09:54.045Z,14.65
2022-09-20T04:12:30.847Z,16.03
2022-09-20T04:15:15.573Z,15.44
2022-09-20T04:17:52.315Z,15.17
2022-09-20T04:20:27.930Z,15.01
2022-09-20T04:23:02.103Z,14.45
2022-09-20T04:25:43.631Z,14.54
2022-09-20T04:28:17.160Z,14.58
2022-09-20T04:30:48.273Z,14.21
2022-09-20T04:33:21.582Z,13.91
2022-09-20T04:36:17.366Z,13.98
2022-09-20T04:38:52.620Z,14.04
2022-09-20T04:41:42.903Z,13.72
2022-09-20T04:44:29.892Z,13.69
2022-09-20T04:47:18.533Z,14.17
2022-09-20T04:50:06.290Z,14.05
2022-09-20T04:52:53.746Z,13.73
2022-09-20T04:55:49.922Z,13.87
2022-09-20T04:58:36.214Z,13.87
2022-09-20T05:01:22.601Z,13.64
2022-09-20T05:04:13.541Z,13.37
2022-09-20T05:07:04.586Z,13.49
2022-09-20T05:09:46.407Z,13.95
2022-09-20T05:12:29.830Z,13.12
2022-09-20T05:15:08.586Z,13.30
2022-09-20T05:17:45.877Z,13.10
2022-09-20T05:20:29.954Z,13.08
2022-09-20T05:23:24.897Z,13.06
2022-09-20T05:26:17.798Z,12.49
2022-09-20T05:28:55.207Z,13.54
2022-09-20T05:31:33.922Z,13.05
2022-09-20T05:34:11.103Z,13.18
2022-09-20T05:36:48.537Z,12.56
2022-09-20T05:39:28.058Z,12.98
2022-09-20T05:42:03.525Z,13.18
2022-09-20T05:44:47.061Z,13.96
2022-09-20T05:47:21.910Z,13.10
2022-09-20T05:50:23.544Z,14.20
2022-09-20T05:53:24.721Z,13.33
2022-09-20T05:56:25.026Z,13.18
2022-09-20T05:59:17.922Z,13.10
2022-09-20T06:02:00.248Z,13.55
2022-09-20T06:04:36.934Z,13.42
2022-09-20T06:07:18.311Z,13.51
2022-09-20T06:10:00.312Z,13.27
2022-09-20T06:12:52.553Z,13.89
2022-09-20T06:15:29.369Z,13.34
2022-09-20T06:18:06.493Z,14.58
2022-09-20T06:20:43.747Z,14.74
2022-09-20T06:23:15.128Z,13.63
2022-09-20T06:25:49.795Z,13.86
2022-09-20T06:28:21.258Z,15.15
2022-09-20T06:30:53.154Z,13.92
2022-09-20T06:33:24.861Z,13.24
2022-09-20T06:35:59.442Z,15.86
2022-09-20T06:38:59.545Z,13.46
2022-09-20T06:41:34.603Z,13.81
2022-09-20T06:44:06.524Z,25.15
2022-09-20T06:46:37.286Z,23.81
2022-09-20T06:49:09.628Z,14.84
2022-09-20T06:51:41.455Z,13.82
2022-09-20T06:54:18.296Z,14.15
2022-09-20T06:56:50.659Z,13.97
2022-09-20T06:59:20.635Z,13.31
2022-09-20T07:01:50.760Z,13.98
2022-09-20T07:04:22.292Z,14.22
2022-09-20T07:06:52.264Z,17.51
2022-09-20T07:09:22.356Z,14.94
2022-09-20T07:11:52.346Z,14.38
2022-09-20T07:14:24.092Z,14.47
2022-09-20T07:16:54.189Z,15.27
2022-09-20T07:19:24.394Z,15.73
2022-09-20T07:21:54.741Z,17.81
2022-09-20T07:24:24.747Z,19.62
2022-09-20T07:26:59.380Z,19.55
2022-09-20T07:29:31.447Z,22.59
2022-09-20T07:32:01.543Z,18.18
2022-09-20T07:34:32.166Z,14.77
2022-09-20T07:37:02.570Z,14.16
2022-09-20T07:39:32.507Z,15.35
2022-09-20T07:42:06.317Z,15.22
2022-09-20T07:44:36.365Z,15.06
2022-09-20T07:47:06.427Z,14.35
2022-09-20T07:49:36.481Z,15.23
2022-09-20T07:52:07.832Z,14.95
2022-09-20T07:54:37.883Z,16.09
2022-09-20T07:57:08.238Z,16.07
2022-09-20T07:59:38.304Z,15.21
2022-09-20T08:02:08.376Z,14.30
2022-09-20T08:04:38.423Z,14.70
2022-09-20T08:07:08.421Z,14.41
2022-09-20T08:09:38.477Z,15.03
2022-09-20T08:14:58.957Z,15.46
2022-09-20T08:17:29.507Z,15.43
2022-09-20T08:20:00.739Z,15.81
2022-09-20T08:22:32.560Z,15.72
2022-09-20T08:25:02.634Z,15.88
2022-09-20T08:27:32.569Z,15.02
2022-09-20T08:30:02.585Z,15.22
2022-09-20T08:32:32.545Z,15.13
2022-09-20T08:35:02.536Z,16.33
2022-09-20T08:37:32.575Z,14.88
2022-09-20T08:40:02.817Z,16.75
2022-09-20T08:42:42.072Z,14.34
2022-09-20T08:45:34.595Z,16.84
2022-09-20T08:48:14.113Z,38.74
2022-09-20T08:50:44.371Z,23.27
2022-09-20T08:53:20.964Z,15.17
2022-09-20T08:55:51.672Z,15.52
2022-09-20T08:58:21.647Z,15.56
2022-09-20T09:00:52.324Z,17.08
2022-09-20T09:03:22.513Z,16.61
2022-09-20T09:05:53.663Z,16.12
2022-09-20T09:08:28.140Z,15.60
2022-09-20T09:11:00.568Z,14.74
2022-09-20T09:13:34.186Z,15.66
2022-09-20T09:16:09.298Z,15.53
2022-09-20T09:18:41.687Z,14.96
2022-09-20T09:21:19.088Z,15.28
2022-09-20T09:23:51.962Z,15.39
2022-09-20T09:26:23.312Z,15.90
2022-09-20T09:29:16.959Z,17.83
2022-09-20T09:31:49.194Z,15.72
2022-09-20T09:34:25.968Z,15.72
2022-09-20T09:36:56.775Z,22.16
2022-09-20T09:39:27.633Z,17.71
2022-09-20T09:42:01.273Z,15.92
2022-09-20T09:44:33.820Z,16.58
2022-09-20T09:47:04.236Z,15.03
2022-09-20T09:49:36.238Z,14.96
2022-09-20T09:52:14.443Z,14.62
2022-09-20T09:54:50.509Z,14.34
2022-09-20T09:57:30.677Z,14.77
2022-09-20T10:00:16.265Z,14.63
2022-09-20T10:03:01.429Z,13.94
2022-09-20T10:05:36.559Z,14.17
2022-09-20T10:08:15.927Z,13.85
2022-09-20T10:11:00.869Z,14.64
2022-09-20T10:13:40.446Z,14.29
2022-09-20T10:16:17.508Z,14.40
2022-09-20T10:18:54.565Z,13.51
2022-09-20T10:21:39.116Z,13.19
2022-09-20T10:24:18.007Z,13.80
2022-09-20T10:27:01.811Z,16.22
2022-09-20T10:29:40.462Z,14.79
2022-09-20T10:32:22.913Z,14.80
2022-09-20T10:35:03.336Z,14.27
2022-09-20T10:37:44.074Z,14.36
2022-09-20T10:40:24.842Z,14.86
2022-09-20T10:43:16.207Z,15.83
2022-09-20T10:48:48.985Z,14.31
2022-09-20T10:51:27.876Z,12.92
2022-09-20T10:54:05.998Z,11.97
2022-09-20T10:56:38.287Z,12.05
2022-09-20T10:59:29.267Z,13.14
2022-09-20T11:02:11.894Z,12.55
2022-09-20T11:04:58.899Z,11.50
2022-09-20T11:07:36.841Z,11.54
2022-09-20T11:10:15.550Z,12.13
2022-09-20T11:12:51.431Z,11.49
2022-09-20T11:15:26.292Z,14.77
2022-09-20T11:18:01.768Z,11.63
2022-09-20T11:20:36.145Z,11.38
2022-09-20T11:23:12.549Z,10.51
2022-09-20T11:25:45.429Z,10.77
2022-09-20T11:28:21.212Z,10.85
2022-09-20T11:30:58.001Z,14.00
2022-09-20T11:33:30.768Z,15.31
2022-09-20T11:36:05.238Z,14.26
2022-09-20T11:38:40.312Z,13.14
2022-09-20T11:41:15.565Z,10.37
2022-09-20T11:43:48.917Z,10.18
2022-09-20T11:46:24.352Z,10.19
2022-09-20T11:48:59.403Z,10.29
2022-09-20T11:52:01.083Z,9.84
2022-09-20T11:54:42.959Z,9.36
2022-09-20T11:57:17.051Z,9.41
2022-09-20T11:59:54.354Z,9.52
2022-09-20T12:02:32.826Z,9.30
2022-09-20T12:05:05.091Z,8.97
2022-09-20T12:07:38.058Z,8.60
2022-09-20T12:10:23.027Z,9.03
2022-09-20T12:12:57.254Z,7.79
2022-09-20T12:15:31.661Z,7.84
2022-09-20T12:18:15.496Z,7.95
2022-09-20T12:21:02.648Z,7.94
2022-09-20T12:24:01.630Z,7.69
2022-09-20T12:26:39.788Z,6.69
2022-09-20T12:29:26.786Z,7.42
2022-09-20T12:31:58.747Z,8.06
2022-09-20T12:34:35.015Z,7.97
2022-09-20T12:37:25.202Z,7.23
2022-09-20T12:39:57.093Z,7.81
2022-09-20T12:42:31.321Z,7.90
2022-09-20T12:45:05.580Z,8.52
2022-09-20T12:47:37.806Z,13.53
2022-09-20T12:50:32.747Z,9.06
2022-09-20T12:53:06.441Z,7.52
2022-09-20T12:55:55.122Z,7.80
2022-09-20T12:58:34.628Z,7.93
2022-09-20T13:01:22.411Z,7.78
2022-09-20T13:03:52.636Z,8.13
2022-09-20T13:06:27.420Z,8.09
2022-09-20T13:09:08.768Z,11.75
2022-09-20T13:11:43.410Z,8.31
2022-09-20T13:14:16.092Z,7.63
2022-09-20T13:16:53.394Z,7.11
2022-09-20T13:19:29.775Z,6.28
2022-09-20T13:22:04.850Z,6.19
2022-09-20T13:24:39.148Z,5.82
2022-09-20T13:27:19.148Z,5.52
2022-09-20T13:29:49.616Z,6.42
2022-09-20T13:32:23.856Z,6.69
2022-09-20T13:35:07.897Z,6.32
2022-09-20T13:37:38.815Z,6.35
2022-09-20T13:40:18.147Z,5.09
2022-09-20T13:42:49.690Z,5.33
2022-09-20T13:45:22.044Z,7.37
2022-09-20T13:47:54.841Z,4.13
2022-09-20T13:50:29.010Z,3.70
2022-09-20T13:53:00.582Z,3.86
2022-09-20T13:55:32.370Z,4.05
2022-09-20T13:58:04.752Z,4.14
2022-09-20T14:00:37.233Z,4.47
2022-09-20T14:03:07.778Z,4.39
2022-09-20T14:05:38.217Z,4.31
2022-09-20T14:08:14.443Z,4.01
2022-09-20T14:10:45.393Z,3.56
2022-09-20T14:13:18.334Z,3.75
2022-09-20T14:15:49.149Z,3.18
2022-09-20T14:18:22.206Z,3.35
2022-09-20T14:20:53.373Z,3.24
2022-09-20T14:23:25.642Z,2.59
2022-09-20T14:26:09.071Z,2.74
2022-09-20T14:28:39.072Z,3.07
2022-09-20T14:31:15.062Z,3.09
2022-09-20T14:33:51.746Z,3.30
2022-09-20T14:36:26.394Z,2.78
2022-09-20T14:38:58.669Z,3.82
2022-09-20T14:41:35.277Z,8.26
2022-09-20T14:44:07.082Z,6.67
2022-09-20T14:46:39.057Z,2.87
2022-09-20T14:49:22.083Z,2.79
2022-09-20T14:51:52.553Z,2.35
2022-09-20T14:54:29.071Z,2.07
2022-09-20T14:56:59.579Z,2.00
2022-09-20T14:59:36.465Z,2.17
2022-09-20T15:02:14.807Z,1.55
2022-09-20T15:04:54.423Z,4.15
2022-09-20T15:07:25.281Z,1.89
2022-09-20T15:09:55.319Z,1.83
2022-09-20T15:12:25.495Z,1.74
2022-09-20T15:14:55.567Z,3.18
2022-09-20T15:17:25.673Z,2.42
2022-09-20T15:19:55.737Z,2.58
2022-09-20T15:22:26.577Z,2.94
2022-09-20T15:24:56.572Z,3.58
2022-09-20T15:27:28.432Z,4.00
2022-09-20T15:29:58.781Z,3.77
2022-09-20T15:32:28.910Z,5.47
2022-09-20T15:34:58.873Z,8.59
2022-09-20T15:37:29.094Z,5.42
2022-09-20T15:39:59.307Z,6.36
2022-09-20T15:42:29.648Z,5.86
2022-09-20T15:44:59.693Z,5.10
2022-09-20T15:47:30.981Z,5.06
2022-09-20T15:50:01.734Z,5.83
2022-09-20T15:52:36.233Z,6.61
2022-09-20T15:55:07.488Z,6.41
2022-09-20T15:57:37.511Z,6.68
2022-09-20T16:00:08.779Z,6.97
2022-09-20T16:02:39.411Z,6.95
2022-09-20T16:05:10.970Z,7.81
2022-09-20T16:07:41.287Z,7.55
2022-09-20T16:10:11.389Z,8.16
2022-09-20T16:12:41.388Z,9.35
2022-09-20T16:15:12.368Z,5.21
2022-09-20T16:18:00.145Z,4.56
2022-09-20T16:20:30.206Z,4.82
2022-09-20T16:23:00.321Z,7.00
2022-09-20T16:25:30.466Z,5.58
2022-09-20T16:28:01.218Z,5.30
2022-09-20T16:30:31.276Z,5.30
2022-09-20T16:33:05.575Z,6.32
2022-09-20T16:35:35.713Z,8.13
2022-09-20T16:38:07.547Z,9.60
2022-09-20T16:40:38.249Z,11.82
2022-09-20T16:43:09.029Z,11.63
2022-09-20T16:45:39.181Z,11.18
2022-09-20T16:48:09.851Z,13.19
2022-09-20T16:50:39.827Z,12.39
2022-09-20T16:53:09.849Z,12.31
2022-09-20T16:55:44.800Z,11.76
2022-09-20T16:58:14.825Z,11.57
2022-09-20T17:00:44.966Z,12.66
2022-09-20T17:03:16.110Z,12.98
2022-09-20T17:05:46.432Z,11.10
2022-09-20T17:08:16.500Z,11.73
2022-09-20T17:10:47.126Z,13.62
2022-09-20T17:13:17.843Z,18.37
2022-09-20T17:15:50.027Z,18.80
2022-09-20T17:18:20.661Z,28.99
2022-09-20T17:20:50.728Z,22.12
2022-09-20T17:23:20.870Z,15.25
2022-09-20T17:26:02.170Z,13.44
2022-09-20T17:28:34.786Z,12.66
2022-09-20T17:31:05.153Z,12.92
2022-09-20T17:33:37.059Z,12.34
2022-09-20T17:36:08.370Z,10.98
2022-09-20T17:38:39.327Z,9.50
2022-09-20T17:41:11.650Z,9.64
2022-09-20T17:43:42.716Z,8.60
2022-09-20T17:46:14.469Z,8.23
2022-09-20T17:48:49.055Z,8.14
2022-09-20T17:51:20.935Z,8.46
2022-09-20T17:53:51.215Z,8.57
2022-09-20T17:56:23.314Z,8.44
2022-09-20T17:58:53.639Z,8.03
2022-09-20T18:01:26.126Z,8.50
2022-09-20T18:03:58.080Z,7.41
2022-09-20T18:06:29.615Z,7.81
2022-09-20T18:09:02.631Z,7.52
2022-09-20T18:12:33.706Z,7.44
2022-09-20T18:15:58.572Z,13.31
2022-09-20T18:18:28.710Z,7.78
2022-09-20T18:20:58.782Z,7.56
2022-09-20T18:23:28.909Z,10.93
2022-09-20T18:26:18.671Z,16.33
2022-09-20T18:28:49.010Z,7.93
2022-09-20T18:31:19.379Z,8.61
2022-09-20T18:33:49.855Z,8.30
2022-09-20T18:36:19.905Z,8.14
2022-09-20T18:38:54.914Z,10.66
2022-09-20T18:41:26.705Z,13.18
2022-09-20T18:43:57.179Z,14.44
2022-09-20T18:46:29.260Z,10.83
2022-09-20T18:49:02.281Z,10.74
2022-09-20T18:51:37.133Z,10.93
2022-09-20T18:54:10.351Z,10.43
2022-09-20T18:56:41.240Z,10.76
2022-09-20T18:59:16.253Z,10.15
2022-09-20T19:02:17.971Z,20.11
2022-09-20T19:05:00.742Z,12.98
2022-09-20T19:07:38.035Z,11.45
2022-09-20T19:10:18.545Z,11.63
2022-09-20T19:12:53.490Z,10.60
2022-09-20T19:15:33.849Z,11.60
2022-09-20T19:18:18.398Z,10.35
2022-09-20T19:20:57.561Z,10.86
2022-09-20T19:23:46.367Z,12.45
2022-09-20T19:26:20.817Z,20.69
2022-09-20T19:28:52.628Z,18.36
2022-09-20T19:31:25.407Z,12.31
2022-09-20T19:33:56.718Z,12.03
2022-09-20T19:36:38.689Z,11.61
2022-09-20T19:39:15.796Z,11.48
2022-09-20T19:41:52.055Z,12.20
2022-09-20T19:44:33.821Z,12.59
2022-09-20T19:47:14.380Z,13.67
2022-09-20T19:49:51.058Z,13.60
2022-09-20T19:52:22.094Z,13.56
2022-09-20T19:54:52.746Z,13.19
2022-09-20T19:57:25.062Z,14.13
2022-09-20T19:59:55.862Z,14.34
2022-09-20T20:02:26.469Z,15.17
2022-09-20T20:04:56.933Z,14.64
2022-09-20T20:07:34.919Z,15.58
2022-09-20T20:10:15.805Z,15.70
2022-09-20T20:12:51.913Z,14.91
2022-09-20T20:15:35.956Z,15.00
2022-09-20T20:18:16.809Z,14.30
2022-09-20T20:20:51.200Z,14.13
2022-09-20T20:23:35.705Z,14.15
2022-09-20T20:26:10.575Z,13.76
2022-09-20T20:28:40.885Z,13.42
2022-09-20T20:31:12.435Z,13.27
2022-09-20T20:33:43.365Z,14.11
2022-09-20T20:36:14.039Z,20.08
2022-09-20T20:38:49.869Z,16.21
2022-09-20T20:41:22.355Z,13.18
2022-09-20T20:43:57.409Z,13.59
2022-09-20T20:46:27.710Z,14.63
2022-09-20T20:48:58.667Z,15.45
2022-09-20T20:51:28.744Z,15.24
2022-09-20T20:53:59.065Z,15.20
2022-09-20T20:56:30.380Z,15.29
2022-09-20T20:59:00.869Z,15.02
2022-09-20T21:01:32.663Z,16.04
2022-09-20T21:04:03.724Z,15.07
2022-09-20T21:06:35.785Z,15.34
2022-09-20T21:09:07.029Z,23.09
2022-09-20T21:11:38.353Z,25.80
2022-09-20T21:14:09.081Z,17.03
2022-09-20T21:16:42.620Z,15.94
2022-09-20T21:19:15.011Z,16.69
2022-09-20T21:21:47.251Z,17.18
2022-09-20T21:24:17.879Z,16.61
2022-09-20T21:26:49.047Z,16.01
2022-09-20T21:29:20.399Z,15.84
2022-09-20T21:31:50.601Z,15.46
2022-09-20T21:34:21.255Z,15.89
2022-09-20T21:36:51.332Z,16.07
2022-09-20T21:39:21.401Z,15.51
2022-09-20T21:41:52.445Z,15.94
2022-09-20T21:44:22.450Z,16.25
2022-09-20T21:46:52.524Z,16.63
2022-09-20T21:49:22.520Z,17.21
2022-09-20T21:51:53.344Z,17.16
2022-09-20T21:54:24.196Z,16.41
2022-09-20T21:56:59.266Z,16.20
2022-09-20T21:59:29.289Z,16.54
2022-09-20T22:01:59.275Z,16.73
2022-09-20T22:04:29.381Z,16.63
2022-09-20T22:06:59.948Z,15.84
2022-09-20T22:09:30.172Z,17.05
2022-09-20T22:12:00.505Z,16.33
2022-09-20T22:14:31.186Z,15.91
2022-09-20T22:17:01.337Z,15.69
2022-09-20T22:19:32.140Z,16.39
2022-09-20T22:22:02.429Z,16.35
2022-09-20T22:24:32.523Z,16.00
2022-09-20T22:27:02.524Z,15.35
2022-09-20T22:29:32.601Z,15.39
2022-09-20T22:32:02.970Z,15.86
2022-09-20T22:34:32.939Z,14.85
2022-09-20T22:37:02.857Z,15.18
2022-09-20T22:39:32.840Z,14.92
2022-09-20T22:42:02.830Z,14.38
2022-09-20T22:44:32.880Z,15.14
2022-09-20T22:47:03.313Z,15.22
2022-09-20T22:49:33.335Z,15.10
2022-09-20T22:52:03.428Z,14.75
2022-09-20T22:54:35.577Z,15.28
2022-09-20T22:57:05.960Z,14.95
2022-09-20T22:59:35.851Z,15.06
2022-09-20T23:02:05.912Z,14.61
2022-09-20T23:04:35.954Z,14.99
2022-09-20T23:07:06.005Z,14.72
2022-09-20T23:09:35.933Z,14.31
2022-09-20T23:12:05.986Z,14.19
2022-09-20T23:14:36.050Z,13.91
2022-09-20T23:17:06.062Z,13.89
2022-09-20T23:19:36.018Z,13.89
2022-09-20T23:22:06.017Z,13.44
2022-09-20T23:24:35.926Z,13.44
2022-09-20T23:27:06.947Z,13.45
2022-09-20T23:29:36.927Z,13.63
2022-09-20T23:32:07.004Z,12.82
2022-09-20T23:34:36.986Z,13.36
2022-09-20T23:37:07.619Z,13.37
2022-09-20T23:39:37.577Z,13.33
2022-09-20T23:42:07.927Z,13.19
2022-09-20T23:44:37.969Z,13.28
2022-09-20T23:47:07.975Z,13.30
2022-09-20T23:49:37.938Z,13.02
2022-09-20T23:52:07.952Z,13.29
2022-09-20T23:54:37.876Z,13.58
2022-09-20T23:57:08.223Z,13.17
2022-09-20T23:59:38.139Z,13.86
